Time;durP1;ratioP1;P1;durP2;ratioP2;P2;SDS_P1;SDS_P2;PMS_P1;PMS_P2;Temp;Humidity;BMP_temperature;BMP_pressure;BME280_temperature;BME280_humidity;BME280_pressure;Samples;Min_cycle;Max_cycle;Signal;HPM_P1;HPM_P2
2023/09/02 00:00:15;;;;;;;20.40;17.17;;;;;;;;;;5096320;28;20532;-62
2023/09/02 00:02:42;;;;;;;17.93;16.00;;;;;;;;;;5096391;28;20541;-62
2023/09/02 00:05:10;;;;;;;18.43;15.17;;;;;;;;;;5096249;28;20533;-62
2023/09/02 00:07:38;;;;;;;17.30;15.50;;;;;;;;;;5096546;28;20435;-62
2023/09/02 00:10:06;;;;;;;19.70;17.17;;;;;;;;;;5096095;28;20482;-62
2023/09/02 00:12:33;;;;;;;16.53;14.67;;;;;;;;;;5096098;28;20484;-62
2023/09/02 00:15:01;;;;;;;18.90;16.90;;;;;;;;;;5096080;28;20438;-61
2023/09/02 00:17:28;;;;;;;18.50;15.70;;;;;;;;;;5095764;28;20500;-61
2023/09/02 00:19:55;;;;;;;18.53;16.73;;;;;;;;;;5095857;28;20446;-61
2023/09/02 00:22:22;;;;;;;18.10;16.20;;;;;;;;;;5095704;28;20988;-61
2023/09/02 00:24:51;;;;;;;18.30;16.30;;;;;;;;;;5095878;28;20541;-61
2023/09/02 00:27:18;;;;;;;19.07;16.70;;;;;;;;;;5095858;28;20428;-61
2023/09/02 00:29:45;;;;;;;20.07;17.13;;;;;;;;;;5095288;28;20473;-61
2023/09/02 00:32:12;;;;;;;19.30;16.37;;;;;;;;;;5094743;28;20439;-61
2023/09/02 00:34:39;;;;;;;21.43;16.70;;;;;;;;;;5095763;28;20510;-61
2023/09/02 00:37:07;;;;;;;19.57;15.77;;;;;;;;;;5095165;28;20487;-61
2023/09/02 00:39:34;;;;;;;22.43;15.97;;;;;;;;;;5094762;28;20450;-61
2023/09/02 00:42:04;;;;;;;21.50;16.90;;;;;;;;;;5095680;28;20438;-61
2023/09/02 00:44:31;;;;;;;20.00;16.30;;;;;;;;;;5094763;28;20995;-62
2023/09/02 00:46:59;;;;;;;30.70;19.27;;;;;;;;;;5094898;28;20534;-61
2023/09/02 00:49:26;;;;;;;26.10;17.07;;;;;;;;;;5095088;28;20491;-61
2023/09/02 00:51:53;;;;;;;26.20;17.10;;;;;;;;;;5095010;28;20444;-62
2023/09/02 00:54:21;;;;;;;26.47;18.20;;;;;;;;;;5094695;28;21062;-62
2023/09/02 00:56:48;;;;;;;27.90;18.60;;;;;;;;;;5095328;28;20449;-62
2023/09/02 00:59:17;;;;;;;25.67;18.90;;;;;;;;;;5095340;28;20445;-63
2023/09/02 01:01:45;;;;;;;26.10;17.73;;;;;;;;;;5095127;28;20442;-63
2023/09/02 01:04:13;;;;;;;24.67;18.40;;;;;;;;;;5094749;28;20546;-63
2023/09/02 01:06:40;;;;;;;35.30;17.93;;;;;;;;;;5095152;28;20436;-63
2023/09/02 01:09:08;;;;;;;33.10;20.33;;;;;;;;;;5095120;28;20990;-63
2023/09/02 01:11:35;;;;;;;32.80;19.77;;;;;;;;;;5095380;28;20817;-63
2023/09/02 01:14:03;;;;;;;33.60;20.53;;;;;;;;;;5095116;28;20441;-64
2023/09/02 01:16:32;;;;;;;30.57;20.17;;;;;;;;;;5094609;28;20504;-63
2023/09/02 01:18:59;;;;;;;34.87;21.20;;;;;;;;;;5094851;28;20804;-63
2023/09/02 01:21:38;;;;;;;33.93;19.90;;;;;;;;;;5094525;28;20501;-63
2023/09/02 01:24:14;;;;;;;38.80;21.83;;;;;;;;;;5094607;28;20527;-63
2023/09/02 01:27:02;;;;;;;33.47;19.97;;;;;;;;;;5094795;28;20449;-63
2023/09/02 01:29:31;;;;;;;34.80;20.77;;;;;;;;;;5094255;28;20474;-63
2023/09/02 01:31:59;;;;;;;36.37;20.60;;;;;;;;;;5094689;28;20441;-63
2023/09/02 01:34:28;;;;;;;37.63;21.10;;;;;;;;;;5094180;28;20525;-64
2023/09/02 01:36:56;;;;;;;44.37;20.57;;;;;;;;;;5094604;28;20998;-63
2023/09/02 01:39:24;;;;;;;37.50;20.87;;;;;;;;;;5094098;28;20464;-64
2023/09/02 01:41:52;;;;;;;36.40;19.50;;;;;;;;;;5093937;28;20445;-63
2023/09/02 01:44:21;;;;;;;39.20;21.57;;;;;;;;;;5093753;28;20438;-63
2023/09/02 01:46:48;;;;;;;36.43;19.13;;;;;;;;;;5094026;28;20793;-63
2023/09/02 01:49:16;;;;;;;28.93;17.70;;;;;;;;;;5093885;28;20440;-63
2023/09/02 01:51:43;;;;;;;35.20;18.83;;;;;;;;;;5094092;28;20531;-63
2023/09/02 01:54:11;;;;;;;32.40;19.50;;;;;;;;;;5094888;28;20471;-63
2023/09/02 01:56:39;;;;;;;37.27;19.83;;;;;;;;;;5094227;28;20793;-63
2023/09/02 01:59:06;;;;;;;32.67;18.90;;;;;;;;;;5094147;28;20439;-63
2023/09/02 02:01:35;;;;;;;37.63;18.60;;;;;;;;;;5093683;28;20946;-63
2023/09/02 02:04:06;;;;;;;35.10;18.20;;;;;;;;;;5094507;28;20520;-63
2023/09/02 02:06:34;;;;;;;40.10;19.23;;;;;;;;;;5094179;28;20789;-63
2023/09/02 02:09:04;;;;;;;42.17;18.40;;;;;;;;;;5093875;28;20438;-63
2023/09/02 02:11:35;;;;;;;32.30;19.50;;;;;;;;;;5093917;28;20480;-63
2023/09/02 02:14:03;;;;;;;35.80;19.20;;;;;;;;;;5094161;28;20789;-63
2023/09/02 02:16:30;;;;;;;39.50;17.73;;;;;;;;;;5093786;28;20530;-63
2023/09/02 02:18:59;;;;;;;29.47;18.87;;;;;;;;;;5093848;28;20536;-63
2023/09/02 02:21:27;;;;;;;37.53;18.67;;;;;;;;;;5093677;28;20445;-63
2023/09/02 02:23:54;;;;;;;36.60;20.00;;;;;;;;;;5093903;28;20433;-64
2023/09/02 02:26:21;;;;;;;30.47;19.00;;;;;;;;;;5093327;28;20446;-64
2023/09/02 02:28:48;;;;;;;35.17;17.90;;;;;;;;;;5093652;28;20804;-64
2023/09/02 02:31:16;;;;;;;29.10;17.03;;;;;;;;;;5093489;28;20489;-64
2023/09/02 02:33:43;;;;;;;33.83;17.30;;;;;;;;;;5093487;28;20444;-64
2023/09/02 02:36:11;;;;;;;41.87;20.33;;;;;;;;;;5093716;28;20537;-64
2023/09/02 02:38:39;;;;;;;30.97;18.30;;;;;;;;;;5093460;28;20478;-64
2023/09/02 02:41:06;;;;;;;30.93;18.97;;;;;;;;;;5093077;28;20439;-64
2023/09/02 02:43:33;;;;;;;27.20;17.90;;;;;;;;;;5093364;28;20545;-64
2023/09/02 02:46:00;;;;;;;34.87;19.43;;;;;;;;;;5093564;28;20538;-64
2023/09/02 02:48:28;;;;;;;38.10;19.70;;;;;;;;;;5093113;28;20525;-64
2023/09/02 02:50:55;;;;;;;33.93;20.50;;;;;;;;;;5092848;28;20974;-64
2023/09/02 02:53:24;;;;;;;33.43;20.37;;;;;;;;;;5093181;28;20468;-64
2023/09/02 02:55:51;;;;;;;39.60;21.20;;;;;;;;;;5093239;28;20435;-64
2023/09/02 02:58:18;;;;;;;32.70;19.70;;;;;;;;;;5093297;28;20800;-64
2023/09/02 03:00:46;;;;;;;34.47;19.57;;;;;;;;;;5093171;28;20528;-64
2023/09/02 03:03:14;;;;;;;37.73;19.80;;;;;;;;;;5093202;28;20447;-64
2023/09/02 03:05:42;;;;;;;31.40;20.43;;;;;;;;;;5093114;28;20446;-64
2023/09/02 03:08:10;;;;;;;31.67;19.37;;;;;;;;;;5093929;28;20491;-64
2023/09/02 03:10:38;;;;;;;30.33;19.43;;;;;;;;;;5092608;28;20480;-64
2023/09/02 03:13:06;;;;;;;28.57;20.10;;;;;;;;;;5093079;28;20436;-64
2023/09/02 03:15:33;;;;;;;28.27;18.87;;;;;;;;;;5093195;28;20445;-64
2023/09/02 03:18:01;;;;;;;35.87;20.47;;;;;;;;;;5093053;28;20450;-64
2023/09/02 03:20:28;;;;;;;39.77;21.53;;;;;;;;;;5092878;28;20543;-64
2023/09/02 03:22:56;;;;;;;30.83;19.60;;;;;;;;;;5093236;28;20533;-64
2023/09/02 03:25:23;;;;;;;35.83;20.93;;;;;;;;;;5092997;28;20452;-64
2023/09/02 03:27:51;;;;;;;34.80;19.83;;;;;;;;;;5092880;28;20494;-64
2023/09/02 03:30:19;;;;;;;32.00;20.47;;;;;;;;;;5092541;28;20485;-64
2023/09/02 03:32:46;;;;;;;35.90;22.00;;;;;;;;;;5092862;28;20500;-64
2023/09/02 03:35:13;;;;;;;36.83;22.40;;;;;;;;;;5093747;28;20438;-64
2023/09/02 03:37:42;;;;;;;36.70;22.40;;;;;;;;;;5092832;28;20437;-64
2023/09/02 03:40:10;;;;;;;41.67;22.73;;;;;;;;;;5092567;28;20441;-64
2023/09/02 03:42:37;;;;;;;45.50;23.90;;;;;;;;;;5092805;28;20431;-64
2023/09/02 03:45:07;;;;;;;41.83;24.13;;;;;;;;;;5093139;28;20445;-63
2023/09/02 03:47:35;;;;;;;40.00;23.60;;;;;;;;;;5092886;28;20603;-64
2023/09/02 03:50:02;;;;;;;40.83;25.10;;;;;;;;;;5090061;28;20499;-64
2023/09/02 03:52:29;;;;;;;40.37;22.60;;;;;;;;;;5091470;28;20544;-64
2023/09/02 03:54:57;;;;;;;42.13;22.27;;;;;;;;;;5091791;28;20484;-64
2023/09/02 03:57:25;;;;;;;41.90;22.47;;;;;;;;;;5092777;28;20440;-64
2023/09/02 03:59:52;;;;;;;43.77;22.83;;;;;;;;;;5091645;28;20619;-64
2023/09/02 04:02:20;;;;;;;52.43;24.20;;;;;;;;;;5092450;28;20529;-64
2023/09/02 04:04:48;;;;;;;46.47;22.67;;;;;;;;;;5092194;28;20449;-64
2023/09/02 04:07:15;;;;;;;45.47;23.90;;;;;;;;;;5095122;28;20448;-64
2023/09/02 04:09:42;;;;;;;46.23;24.67;;;;;;;;;;5096304;28;20528;-64
2023/09/02 04:12:09;;;;;;;57.00;25.27;;;;;;;;;;5095896;28;20490;-64
2023/09/02 04:14:36;;;;;;;53.60;24.80;;;;;;;;;;5096140;28;20524;-64
2023/09/02 04:17:04;;;;;;;42.67;22.40;;;;;;;;;;5096006;28;20534;-64
2023/09/02 04:19:33;;;;;;;54.20;22.97;;;;;;;;;;5094927;28;20448;-64
2023/09/02 04:22:00;;;;;;;42.53;23.40;;;;;;;;;;5094717;28;20441;-64
2023/09/02 04:24:29;;;;;;;48.07;25.43;;;;;;;;;;5095488;28;20442;-64
2023/09/02 04:26:57;;;;;;;48.50;24.27;;;;;;;;;;5095887;28;20832;-64
2023/09/02 04:29:24;;;;;;;51.67;24.70;;;;;;;;;;5095756;28;20838;-64
2023/09/02 04:31:53;;;;;;;41.10;22.70;;;;;;;;;;5096135;28;20505;-64
2023/09/02 04:34:20;;;;;;;62.40;26.10;;;;;;;;;;5096051;28;20491;-64
2023/09/02 04:36:49;;;;;;;63.10;24.97;;;;;;;;;;5095581;28;20450;-64
2023/09/02 04:39:16;;;;;;;45.67;23.83;;;;;;;;;;5095220;28;20440;-64
2023/09/02 04:41:43;;;;;;;46.87;23.40;;;;;;;;;;5096197;28;20516;-64
2023/09/02 04:44:11;;;;;;;51.97;23.07;;;;;;;;;;5095586;28;20441;-64
2023/09/02 04:46:38;;;;;;;52.57;24.83;;;;;;;;;;5095496;28;20496;-64
2023/09/02 04:49:05;;;;;;;49.33;24.33;;;;;;;;;;5095505;28;20537;-64
2023/09/02 04:51:32;;;;;;;53.93;23.40;;;;;;;;;;5094967;28;20914;-64
2023/09/02 04:54:01;;;;;;;47.00;23.23;;;;;;;;;;5094807;28;20573;-64
2023/09/02 04:56:28;;;;;;;47.53;23.60;;;;;;;;;;5094974;28;20517;-64
2023/09/02 04:58:55;;;;;;;41.73;23.47;;;;;;;;;;5095360;28;20438;-64
2023/09/02 05:01:23;;;;;;;39.60;24.30;;;;;;;;;;5094757;28;20548;-64
2023/09/02 05:03:50;;;;;;;45.87;25.10;;;;;;;;;;5094943;28;20502;-64
2023/09/02 05:06:17;;;;;;;42.27;21.37;;;;;;;;;;5095171;28;20447;-64
2023/09/02 05:08:45;;;;;;;44.00;21.97;;;;;;;;;;5095201;28;20462;-64
2023/09/02 05:11:13;;;;;;;42.67;22.37;;;;;;;;;;5094980;28;20476;-64
2023/09/02 05:13:41;;;;;;;42.23;22.20;;;;;;;;;;5094650;28;20442;-64
2023/09/02 05:16:08;;;;;;;41.17;23.40;;;;;;;;;;5094910;28;20487;-64
2023/09/02 05:18:35;;;;;;;38.73;21.20;;;;;;;;;;5094710;28;20531;-64
2023/09/02 05:21:02;;;;;;;38.80;21.00;;;;;;;;;;5094775;28;20447;-64
2023/09/02 05:23:29;;;;;;;39.13;21.80;;;;;;;;;;5094838;28;20450;-64
2023/09/02 05:25:57;;;;;;;41.80;23.30;;;;;;;;;;5094431;28;20504;-64
2023/09/02 05:28:26;;;;;;;39.13;22.90;;;;;;;;;;5094567;28;20469;-64
2023/09/02 05:30:53;;;;;;;41.03;21.40;;;;;;;;;;5094701;28;20474;-64
2023/09/02 05:33:20;;;;;;;31.73;20.70;;;;;;;;;;5094103;28;20473;-64
2023/09/02 05:35:47;;;;;;;39.37;22.80;;;;;;;;;;5094529;28;20473;-64
2023/09/02 05:38:15;;;;;;;34.33;21.20;;;;;;;;;;5094092;28;20921;-64
2023/09/02 05:40:42;;;;;;;40.93;21.73;;;;;;;;;;5094192;28;20954;-64
2023/09/02 05:43:09;;;;;;;38.00;22.20;;;;;;;;;;5094382;28;20449;-64
2023/09/02 05:45:38;;;;;;;42.23;22.23;;;;;;;;;;5094394;28;20453;-64
2023/09/02 05:48:06;;;;;;;35.03;20.57;;;;;;;;;;5093954;28;20958;-64
2023/09/02 05:50:33;;;;;;;36.13;22.53;;;;;;;;;;5094593;28;20876;-64
2023/09/02 05:53:00;;;;;;;36.07;21.23;;;;;;;;;;5093779;28;20560;-63
2023/09/02 05:55:27;;;;;;;36.10;22.20;;;;;;;;;;5094053;28;20441;-64
2023/09/02 05:57:54;;;;;;;36.17;21.90;;;;;;;;;;5093705;28;20479;-64
2023/09/02 06:00:22;;;;;;;34.83;20.40;;;;;;;;;;5094226;28;20442;-63
2023/09/02 06:02:50;;;;;;;33.27;21.47;;;;;;;;;;5094023;28;20478;-64
2023/09/02 06:05:18;;;;;;;34.27;20.80;;;;;;;;;;5094178;28;20870;-64
2023/09/02 06:07:45;;;;;;;30.87;22.17;;;;;;;;;;5093951;28;20430;-64
2023/09/02 06:10:12;;;;;;;35.87;21.70;;;;;;;;;;5093928;28;20479;-64
2023/09/02 06:12:39;;;;;;;31.73;20.70;;;;;;;;;;5093486;28;20557;-64
2023/09/02 06:15:07;;;;;;;35.13;21.20;;;;;;;;;;5093390;28;20438;-64
2023/09/02 06:17:34;;;;;;;34.77;22.17;;;;;;;;;;5093643;28;20519;-64
2023/09/02 06:20:03;;;;;;;44.10;27.80;;;;;;;;;;5093676;28;20549;-64
2023/09/02 06:22:30;;;;;;;40.40;25.13;;;;;;;;;;5093111;28;20961;-64
2023/09/02 06:24:59;;;;;;;37.73;20.60;;;;;;;;;;5093718;28;20437;-64
2023/09/02 06:27:26;;;;;;;31.37;20.70;;;;;;;;;;5093508;28;20532;-64
2023/09/02 06:29:53;;;;;;;37.00;22.17;;;;;;;;;;5093322;28;20532;-64
2023/09/02 06:32:21;;;;;;;34.23;21.63;;;;;;;;;;5093477;28;20570;-64
2023/09/02 06:34:48;;;;;;;32.03;22.13;;;;;;;;;;5093110;28;20443;-64
2023/09/02 06:37:16;;;;;;;38.77;21.93;;;;;;;;;;5093537;28;20803;-71
2023/09/02 06:39:43;;;;;;;30.30;21.57;;;;;;;;;;5093209;28;20923;-65
2023/09/02 06:42:11;;;;;;;32.93;21.33;;;;;;;;;;5093203;28;20958;-66
2023/09/02 06:44:38;;;;;;;32.70;21.93;;;;;;;;;;5093417;28;20806;-65
2023/09/02 06:47:05;;;;;;;34.57;21.77;;;;;;;;;;5093757;28;20520;-66
2023/09/02 06:49:33;;;;;;;30.83;19.50;;;;;;;;;;5093255;28;20525;-65
2023/09/02 06:52:00;;;;;;;34.80;20.47;;;;;;;;;;5092944;28;20497;-65
2023/09/02 06:54:28;;;;;;;35.63;23.03;;;;;;;;;;5093136;28;20995;-65
2023/09/02 06:56:56;;;;;;;32.17;20.17;;;;;;;;;;5093390;28;20523;-65
2023/09/02 06:59:25;;;;;;;26.13;18.83;;;;;;;;;;5092789;28;20446;-65
2023/09/02 07:01:52;;;;;;;27.27;19.13;;;;;;;;;;5093357;28;20443;-65
2023/09/02 07:04:20;;;;;;;30.00;20.40;;;;;;;;;;5092607;28;20571;-65
2023/09/02 07:06:47;;;;;;;26.97;18.60;;;;;;;;;;5092693;28;20928;-65
2023/09/02 07:09:14;;;;;;;31.97;20.00;;;;;;;;;;5092955;28;20443;-65
2023/09/02 07:11:42;;;;;;;28.33;20.13;;;;;;;;;;5092965;28;20565;-65
2023/09/02 07:14:10;;;;;;;27.93;20.30;;;;;;;;;;5092608;28;20943;-65
2023/09/02 07:16:37;;;;;;;27.97;19.90;;;;;;;;;;5093144;28;20433;-65
2023/09/02 07:19:04;;;;;;;26.67;19.83;;;;;;;;;;5092202;28;20531;-65
2023/09/02 07:21:31;;;;;;;24.60;19.73;;;;;;;;;;5092518;28;20538;-65
2023/09/02 07:23:58;;;;;;;21.97;18.17;;;;;;;;;;5092352;28;20936;-65
2023/09/02 07:26:27;;;;;;;21.70;16.83;;;;;;;;;;5092779;28;20526;-65
2023/09/02 07:28:56;;;;;;;23.47;18.17;;;;;;;;;;5092950;28;20452;-65
2023/09/02 07:31:23;;;;;;;22.43;17.70;;;;;;;;;;5092577;28;20479;-65
2023/09/02 07:33:50;;;;;;;21.90;17.90;;;;;;;;;;5092587;28;20985;-65
2023/09/02 07:36:17;;;;;;;21.77;17.80;;;;;;;;;;5092606;28;20436;-65
2023/09/02 07:38:45;;;;;;;25.67;18.60;;;;;;;;;;5093088;28;20788;-65
2023/09/02 07:41:12;;;;;;;23.80;19.63;;;;;;;;;;5093934;28;20437;-65
2023/09/02 07:43:39;;;;;;;23.13;17.60;;;;;;;;;;5096261;28;20550;-65
2023/09/02 07:46:08;;;;;;;23.47;17.33;;;;;;;;;;5096526;28;20532;-65
2023/09/02 07:48:35;;;;;;;23.00;16.60;;;;;;;;;;5096267;28;20443;-65
2023/09/02 07:51:02;;;;;;;23.10;17.80;;;;;;;;;;5096349;28;20434;-65
2023/09/02 07:53:30;;;;;;;23.33;17.70;;;;;;;;;;5095995;28;20476;-65
2023/09/02 07:55:57;;;;;;;27.97;16.10;;;;;;;;;;5096236;28;20546;-66
2023/09/02 07:58:24;;;;;;;21.47;17.70;;;;;;;;;;5095886;28;20968;-65
2023/09/02 08:00:51;;;;;;;21.60;18.80;;;;;;;;;;5095791;28;20432;-65
2023/09/02 08:03:20;;;;;;;21.23;16.30;;;;;;;;;;5096043;28;20529;-65
2023/09/02 08:05:47;;;;;;;23.50;18.03;;;;;;;;;;5096038;28;20811;-65
2023/09/02 08:08:14;;;;;;;23.67;16.47;;;;;;;;;;5096085;28;20443;-65
2023/09/02 08:10:41;;;;;;;18.13;16.20;;;;;;;;;;5095819;28;20435;-65
2023/09/02 08:13:09;;;;;;;17.83;15.57;;;;;;;;;;5095605;28;21019;-65
2023/09/02 08:15:38;;;;;;;22.47;15.23;;;;;;;;;;5095279;28;20438;-65
2023/09/02 08:18:05;;;;;;;20.00;17.70;;;;;;;;;;5095198;28;20443;-65
2023/09/02 08:20:35;;;;;;;19.40;17.37;;;;;;;;;;5095389;28;20439;-65
2023/09/02 08:23:02;;;;;;;20.00;16.83;;;;;;;;;;5095354;28;20537;-65
2023/09/02 08:25:30;;;;;;;23.00;16.40;;;;;;;;;;5095463;28;20545;-65
2023/09/02 08:27:57;;;;;;;20.67;18.57;;;;;;;;;;5094999;28;20444;-65
2023/09/02 08:30:24;;;;;;;18.63;16.63;;;;;;;;;;5095335;28;20463;-65
2023/09/02 08:32:51;;;;;;;20.47;17.50;;;;;;;;;;5094991;28;20553;-65
2023/09/02 08:35:19;;;;;;;18.90;16.00;;;;;;;;;;5094882;28;20450;-65
2023/09/02 08:37:47;;;;;;;19.43;16.80;;;;;;;;;;5095348;28;20462;-65
2023/09/02 08:40:15;;;;;;;19.60;15.50;;;;;;;;;;5094654;28;20998;-66
2023/09/02 08:42:42;;;;;;;18.90;16.07;;;;;;;;;;5095024;28;20435;-66
2023/09/02 08:45:11;;;;;;;18.30;16.37;;;;;;;;;;5094664;28;20534;-66
2023/09/02 08:47:40;;;;;;;21.93;16.80;;;;;;;;;;5094971;28;20449;-65
2023/09/02 08:50:08;;;;;;;20.33;16.77;;;;;;;;;;5094849;28;20932;-65
2023/09/02 08:52:35;;;;;;;18.63;15.40;;;;;;;;;;5094496;28;20498;-65
2023/09/02 08:55:04;;;;;;;19.13;16.83;;;;;;;;;;5094710;28;20469;-65
2023/09/02 08:57:31;;;;;;;24.17;17.40;;;;;;;;;;5094857;28;20448;-65
2023/09/02 09:00:00;;;;;;;18.70;15.80;;;;;;;;;;5094526;28;20885;-65
2023/09/02 09:02:28;;;;;;;19.23;14.87;;;;;;;;;;5094751;28;20444;-65
2023/09/02 09:04:55;;;;;;;17.03;15.23;;;;;;;;;;5094379;28;20534;-65
2023/09/02 09:07:22;;;;;;;21.40;16.00;;;;;;;;;;5094398;28;20438;-65
2023/09/02 09:09:50;;;;;;;17.03;15.23;;;;;;;;;;5094445;28;20441;-65
2023/09/02 09:12:20;;;;;;;20.40;15.63;;;;;;;;;;5094474;28;20884;-65
2023/09/02 09:14:48;;;;;;;19.17;16.43;;;;;;;;;;5095076;28;20478;-65
2023/09/02 09:17:17;;;;;;;15.60;14.00;;;;;;;;;;5094441;28;20445;-62
2023/09/02 09:19:44;;;;;;;16.53;14.80;;;;;;;;;;5094291;28;20860;-62
2023/09/02 09:22:11;;;;;;;23.17;18.67;;;;;;;;;;5094061;28;20439;-63
2023/09/02 09:24:38;;;;;;;20.20;15.33;;;;;;;;;;5094802;28;20951;-62
2023/09/02 09:27:07;;;;;;;17.20;14.47;;;;;;;;;;5094472;28;20921;-62
2023/09/02 09:29:40;;;;;;;16.40;14.53;;;;;;;;;;5094354;28;20518;-62
2023/09/02 09:32:10;;;;;;;17.93;14.80;;;;;;;;;;5094364;28;20467;-63
2023/09/02 09:34:38;;;;;;;16.80;14.40;;;;;;;;;;5094090;28;20442;-63
2023/09/02 09:37:07;;;;;;;16.07;14.50;;;;;;;;;;5093930;28;20803;-63
2023/09/02 09:39:41;;;;;;;16.67;14.83;;;;;;;;;;5094660;28;20436;-62
2023/09/02 09:42:08;;;;;;;19.87;15.87;;;;;;;;;;5093894;28;20439;-63
2023/09/02 09:44:35;;;;;;;24.70;17.97;;;;;;;;;;5094003;28;20431;-62
2023/09/02 09:47:09;;;;;;;21.93;17.50;;;;;;;;;;5094269;28;20909;-62
2023/09/02 09:49:36;;;;;;;18.80;14.97;;;;;;;;;;5093927;28;20443;-62
2023/09/02 09:52:10;;;;;;;19.80;15.70;;;;;;;;;;5093177;28;20574;-63
2023/09/02 09:54:38;;;;;;;20.13;15.57;;;;;;;;;;5093574;28;20468;-62
2023/09/02 09:57:05;;;;;;;24.07;18.03;;;;;;;;;;5094084;28;20470;-62
2023/09/02 09:59:33;;;;;;;25.60;19.70;;;;;;;;;;5093776;28;20456;-63
2023/09/02 10:02:00;;;;;;;27.70;19.10;;;;;;;;;;5093641;28;20488;-63
2023/09/02 10:04:29;;;;;;;27.80;20.10;;;;;;;;;;5092540;28;20452;-62
2023/09/02 10:06:59;;;;;;;27.50;20.50;;;;;;;;;;5093590;28;20497;-62
2023/09/02 10:09:26;;;;;;;26.13;19.80;;;;;;;;;;5093968;28;20479;-62
2023/09/02 10:11:53;;;;;;;29.37;22.40;;;;;;;;;;5093489;28;20466;-62
2023/09/02 10:14:20;;;;;;;33.87;23.67;;;;;;;;;;5093674;28;20447;-62
2023/09/02 10:16:48;;;;;;;37.60;24.10;;;;;;;;;;5093539;28;20436;-62
2023/09/02 10:19:16;;;;;;;32.97;22.73;;;;;;;;;;5093616;28;20440;-62
2023/09/02 10:21:45;;;;;;;32.87;24.97;;;;;;;;;;5093615;28;20497;-62
2023/09/02 10:24:14;;;;;;;34.17;23.93;;;;;;;;;;5093322;28;20489;-62
2023/09/02 10:26:46;;;;;;;33.53;24.00;;;;;;;;;;5093249;28;20435;-62
2023/09/02 10:29:15;;;;;;;37.57;23.50;;;;;;;;;;5093386;28;20430;-62
2023/09/02 10:31:45;;;;;;;34.33;24.50;;;;;;;;;;5092948;28;20968;-62
2023/09/02 10:34:15;;;;;;;35.83;24.30;;;;;;;;;;5092917;28;20507;-62
2023/09/02 10:36:46;;;;;;;32.63;23.17;;;;;;;;;;5093402;28;20441;-62
2023/09/02 10:39:18;;;;;;;38.63;25.93;;;;;;;;;;5093318;28;20518;-62
2023/09/02 10:41:46;;;;;;;36.13;26.53;;;;;;;;;;5093408;28;20431;-62
2023/09/02 10:44:14;;;;;;;41.93;27.37;;;;;;;;;;5092918;28;20794;-62
2023/09/02 10:46:41;;;;;;;34.73;26.00;;;;;;;;;;5093228;28;20443;-62
2023/09/02 10:49:09;;;;;;;36.10;25.50;;;;;;;;;;5092749;28;20443;-62
2023/09/02 10:51:37;;;;;;;36.00;25.30;;;;;;;;;;5092759;28;20964;-62
2023/09/02 10:54:06;;;;;;;33.60;26.40;;;;;;;;;;5092766;28;20491;-62
2023/09/02 10:56:34;;;;;;;32.37;23.70;;;;;;;;;;5092843;28;20479;-62
2023/09/02 10:59:01;;;;;;;34.40;25.30;;;;;;;;;;5092698;28;20872;-62
2023/09/02 11:01:42;;;;;;;30.07;23.47;;;;;;;;;;5092544;28;20485;-62
2023/09/02 11:04:10;;;;;;;33.67;26.00;;;;;;;;;;5092628;28;20432;-62
2023/09/02 11:06:37;;;;;;;31.73;23.33;;;;;;;;;;5092746;28;20435;-62
2023/09/02 11:09:06;;;;;;;32.30;24.50;;;;;;;;;;5092950;28;20521;-62
2023/09/02 11:11:48;;;;;;;31.93;24.80;;;;;;;;;;5093255;28;20442;-62
2023/09/02 11:14:21;;;;;;;36.33;23.63;;;;;;;;;;5092346;28;20562;-62
2023/09/02 11:17:07;;;;;;;32.97;25.33;;;;;;;;;;5096745;28;20943;-62
2023/09/02 11:19:52;;;;;;;31.30;25.00;;;;;;;;;;5097267;28;20506;-62
2023/09/02 11:22:34;;;;;;;32.90;25.30;;;;;;;;;;5095953;28;20797;-62
2023/09/02 11:25:03;;;;;;;33.00;24.57;;;;;;;;;;5096687;28;20444;-62
2023/09/02 11:27:44;;;;;;;37.60;26.07;;;;;;;;;;5097227;28;20525;-63
2023/09/02 11:30:12;;;;;;;30.60;24.20;;;;;;;;;;5096813;28;20428;-62
2023/09/02 11:32:44;;;;;;;33.03;23.83;;;;;;;;;;5096571;28;20836;-62
2023/09/02 11:35:12;;;;;;;29.33;23.50;;;;;;;;;;5097059;28;20427;-63
2023/09/02 11:37:39;;;;;;;28.07;22.17;;;;;;;;;;5096443;28;20990;-62
2023/09/02 11:40:17;;;;;;;31.30;23.13;;;;;;;;;;5096493;28;20521;-62
2023/09/02 11:42:51;;;;;;;26.33;21.03;;;;;;;;;;5096589;28;20528;-62
2023/09/02 11:45:18;;;;;;;27.30;22.60;;;;;;;;;;5096449;28;20459;-62
2023/09/02 11:47:45;;;;;;;25.90;20.10;;;;;;;;;;5096523;28;20797;-62
2023/09/02 11:50:14;;;;;;;24.17;21.17;;;;;;;;;;5096143;28;20431;-62
2023/09/02 11:52:41;;;;;;;25.93;22.73;;;;;;;;;;5095936;28;20478;-62
2023/09/02 11:55:09;;;;;;;26.47;21.87;;;;;;;;;;5096425;28;20478;-62
2023/09/02 11:57:38;;;;;;;23.83;20.83;;;;;;;;;;5096253;28;20532;-62
2023/09/02 12:00:07;;;;;;;24.73;20.00;;;;;;;;;;5096379;28;20526;-62
2023/09/02 12:02:36;;;;;;;26.70;20.70;;;;;;;;;;5095786;28;20447;-62
2023/09/02 12:05:04;;;;;;;22.93;18.37;;;;;;;;;;5095952;28;20436;-62
2023/09/02 12:07:32;;;;;;;24.30;20.07;;;;;;;;;;5096348;28;20443;-62
2023/09/02 12:09:59;;;;;;;23.30;19.40;;;;;;;;;;5096104;28;20472;-62
2023/09/02 12:12:27;;;;;;;26.93;21.10;;;;;;;;;;5095875;28;20523;-62
2023/09/02 12:14:58;;;;;;;23.23;19.00;;;;;;;;;;5095543;28;20531;-62
2023/09/02 12:17:25;;;;;;;23.97;19.30;;;;;;;;;;5096213;28;20534;-62
2023/09/02 12:19:52;;;;;;;24.20;18.80;;;;;;;;;;5095564;28;20454;-62
2023/09/02 12:22:21;;;;;;;25.50;19.40;;;;;;;;;;5096033;28;20877;-62
2023/09/02 12:24:48;;;;;;;22.50;19.20;;;;;;;;;;5096150;28;20797;-62
2023/09/02 12:27:17;;;;;;;22.07;19.70;;;;;;;;;;5094985;28;20521;-62
2023/09/02 12:29:54;;;;;;;22.20;19.90;;;;;;;;;;5095810;28;20437;-62
2023/09/02 12:32:23;;;;;;;26.53;20.47;;;;;;;;;;5095926;28;21020;-62
2023/09/02 12:34:50;;;;;;;23.60;19.03;;;;;;;;;;5095555;28;20477;-62
2023/09/02 12:37:18;;;;;;;23.20;19.23;;;;;;;;;;5095385;28;20803;-62
2023/09/02 12:39:45;;;;;;;21.50;19.30;;;;;;;;;;5095767;28;20522;-62
2023/09/02 12:42:16;;;;;;;21.33;19.13;;;;;;;;;;5095530;28;20445;-62
2023/09/02 12:44:53;;;;;;;20.77;18.67;;;;;;;;;;5095379;28;20523;-62
2023/09/02 12:47:22;;;;;;;23.43;18.63;;;;;;;;;;5095976;28;20436;-62
2023/09/02 12:49:50;;;;;;;20.10;18.00;;;;;;;;;;5094965;28;20538;-62
2023/09/02 12:52:18;;;;;;;25.37;19.83;;;;;;;;;;5095270;28;20840;-62
2023/09/02 12:54:54;;;;;;;23.00;19.60;;;;;;;;;;5094085;28;20502;-62
2023/09/02 12:57:21;;;;;;;21.30;18.87;;;;;;;;;;5094932;28;20431;-62
2023/09/02 12:59:48;;;;;;;22.10;19.80;;;;;;;;;;5095186;28;20538;-62
2023/09/02 13:02:16;;;;;;;24.10;20.80;;;;;;;;;;5095021;28;20436;-62
2023/09/02 13:04:44;;;;;;;21.17;19.03;;;;;;;;;;5094873;28;20444;-62
2023/09/02 13:07:12;;;;;;;20.90;18.77;;;;;;;;;;5094879;28;20452;-63
2023/09/02 13:09:40;;;;;;;21.47;19.30;;;;;;;;;;5094486;28;20476;-62
2023/09/02 13:12:07;;;;;;;21.77;19.47;;;;;;;;;;5094661;28;20433;-62
2023/09/02 13:14:35;;;;;;;21.10;19.00;;;;;;;;;;5094422;28;20483;-62
2023/09/02 13:17:02;;;;;;;20.77;18.37;;;;;;;;;;5094543;28;20805;-62
2023/09/02 13:19:30;;;;;;;20.87;18.63;;;;;;;;;;5094560;28;20496;-62
2023/09/02 13:21:59;;;;;;;21.40;18.00;;;;;;;;;;5094335;28;20469;-62
2023/09/02 13:24:26;;;;;;;20.50;18.30;;;;;;;;;;5094392;28;20450;-62
2023/09/02 13:26:55;;;;;;;21.77;19.43;;;;;;;;;;5094262;28;20446;-62
2023/09/02 13:29:24;;;;;;;21.73;19.40;;;;;;;;;;5094323;28;20869;-62
2023/09/02 13:31:51;;;;;;;18.57;16.77;;;;;;;;;;5094279;28;20949;-62
2023/09/02 13:34:30;;;;;;;21.10;18.90;;;;;;;;;;5093804;28;20974;-61
2023/09/02 13:37:13;;;;;;;21.10;18.90;;;;;;;;;;5094255;28;20436;-61
2023/09/02 13:39:40;;;;;;;22.60;18.97;;;;;;;;;;5094319;28;20435;-61
2023/09/02 13:42:09;;;;;;;21.13;18.97;;;;;;;;;;5093821;28;20454;-61
2023/09/02 13:44:36;;;;;;;20.63;18.53;;;;;;;;;;5093706;28;21022;-61
2023/09/02 13:47:05;;;;;;;22.77;18.90;;;;;;;;;;5094054;28;20438;-62
2023/09/02 13:49:33;;;;;;;20.30;18.30;;;;;;;;;;5094217;28;20801;-61
2023/09/02 13:52:00;;;;;;;19.67;17.57;;;;;;;;;;5093759;28;20445;-61
2023/09/02 13:54:29;;;;;;;20.90;18.17;;;;;;;;;;5093317;28;20599;-61
2023/09/02 13:56:56;;;;;;;20.30;18.30;;;;;;;;;;5093452;28;20445;-61
2023/09/02 13:59:24;;;;;;;19.93;17.80;;;;;;;;;;5093730;28;20443;-61
2023/09/02 14:01:52;;;;;;;20.33;18.33;;;;;;;;;;5093853;28;20437;-61
2023/09/02 14:04:19;;;;;;;21.03;17.77;;;;;;;;;;5093464;28;20454;-61
2023/09/02 14:06:46;;;;;;;21.63;17.97;;;;;;;;;;5093137;28;20443;-61
2023/09/02 14:09:19;;;;;;;18.87;16.97;;;;;;;;;;5093023;28;20450;-61
2023/09/02 14:11:48;;;;;;;14.40;13.00;;;;;;;;;;5093503;28;20450;-61
2023/09/02 14:14:15;;;;;;;16.67;14.90;;;;;;;;;;5093417;28;20514;-61
2023/09/02 14:16:43;;;;;;;13.60;12.33;;;;;;;;;;5093251;28;20446;-61
2023/09/02 14:19:10;;;;;;;14.40;13.00;;;;;;;;;;5093249;28;20449;-61
2023/09/02 14:21:37;;;;;;;12.67;11.50;;;;;;;;;;5093209;28;20842;-61